Pagrindinis puslapis
METAR-TAF:

METAR-TAF

Oro uostai :

Oro pajėgų bazė

Linšiopingas, Švedija

platuma: 58-24N, ilguma: 015-31E, Aukštis: 93 m

Dabartinis oras

Ataskaita buvo paskelbta 21 minutes, ne 13:20 UTC
Vėjas 8 kt iš Šiaurės
Temperatūra -5°C
Drėgmė 86%
Slėgis 992 hPa
Matomumas 10 km arba daugiau
Mažai debesys ne aukštis 4800 ft

METAR: ESCF 021320Z 35008KT 9999 FEW048 M05/M07 Q0992

Laikas: 14:41 (13:41 UTC)

Prognozė

Ataskaita buvo paskelbta 2 valandos ir 11 minutes, ne 11:30 UTC
Prognozė galioja nuo 02 metu 12 UTC su 02 metu 21 UTC
Vėjas 10 kt iš Šiaurės/Šiaurės Vakarų
Matomumas 10 km arba daugiau
Išsisklaidę debesys ne aukštis 1500 ft

TAF: ESCF 021130Z 0212/0221 34010KT 9999 SCT015 RMK MIL

Orai ataskaitas ir orų prognozės (METAR, TAF).

turimą stotys yra geltonos ir raudonos taškus žemėlapyje.

Perkelti pele per norėdami pamatyti stoties vardą.

Tada spustelėkite, norėdami matyti oro stebėjimo ir prognozės.

Norėdami pakeisti žemėlapį: spustelėkite ant žalios mygtukų su juodo kryžiaus žemyn,; žalią mygtuką su brūkšneliu, jei norite nutolinti; arba žalių rodyklių gretimoms žemėlapius.


METAR-TAF: